sensor_id;sensor_type;location;lat;lon;timestamp;P1;durP1;ratioP1;P2;durP2;ratioP2
75584;SDS011;64162;53.508;10.476;2023-12-20T00:01:28;5.43;;;1.90;;
75584;SDS011;64162;53.508;10.476;2023-12-20T00:03:55;13.45;;;2.55;;
75584;SDS011;64162;53.508;10.476;2023-12-20T00:06:21;7.78;;;2.03;;
75584;SDS011;64162;53.508;10.476;2023-12-20T00:08:56;9.68;;;2.55;;
75584;SDS011;64162;53.508;10.476;2023-12-20T00:11:24;10.43;;;2.17;;
75584;SDS011;64162;53.508;10.476;2023-12-20T00:13:51;9.25;;;1.90;;
75584;SDS011;64162;53.508;10.476;2023-12-20T00:16:18;7.10;;;1.70;;
75584;SDS011;64162;53.508;10.476;2023-12-20T00:18:45;5.78;;;1.63;;
75584;SDS011;64162;53.508;10.476;2023-12-20T00:21:14;6.20;;;1.50;;
75584;SDS011;64162;53.508;10.476;2023-12-20T00:23:42;7.72;;;1.55;;
75584;SDS011;64162;53.508;10.476;2023-12-20T00:26:11;9.38;;;1.58;;
75584;SDS011;64162;53.508;10.476;2023-12-20T00:28:38;3.10;;;1.67;;
75584;SDS011;64162;53.508;10.476;2023-12-20T00:31:05;4.72;;;1.88;;
75584;SDS011;64162;53.508;10.476;2023-12-20T00:33:31;4.45;;;1.60;;
75584;SDS011;64162;53.508;10.476;2023-12-20T00:35:58;6.93;;;1.60;;
75584;SDS011;64162;53.508;10.476;2023-12-20T00:38:28;6.00;;;1.80;;
75584;SDS011;64162;53.508;10.476;2023-12-20T00:40:55;6.07;;;2.22;;
75584;SDS011;64162;53.508;10.476;2023-12-20T00:43:24;8.45;;;1.77;;
75584;SDS011;64162;53.508;10.476;2023-12-20T00:45:51;6.82;;;1.70;;
75584;SDS011;64162;53.508;10.476;2023-12-20T00:48:18;9.93;;;1.98;;
75584;SDS011;64162;53.508;10.476;2023-12-20T00:50:44;11.77;;;2.20;;
75584;SDS011;64162;53.508;10.476;2023-12-20T00:55:40;5.80;;;0.93;;
75584;SDS011;64162;53.508;10.476;2023-12-20T00:58:06;6.57;;;1.77;;
75584;SDS011;64162;53.508;10.476;2023-12-20T01:00:36;12.48;;;1.50;;
75584;SDS011;64162;53.508;10.476;2023-12-20T01:03:03;7.13;;;1.88;;
75584;SDS011;64162;53.508;10.476;2023-12-20T01:05:30;6.28;;;1.60;;
75584;SDS011;64162;53.508;10.476;2023-12-20T01:07:58;6.40;;;1.60;;
75584;SDS011;64162;53.508;10.476;2023-12-20T01:10:24;3.75;;;1.30;;
75584;SDS011;64162;53.508;10.476;2023-12-20T01:12:54;6.40;;;0.82;;
75584;SDS011;64162;53.508;10.476;2023-12-20T01:15:21;7.72;;;1.90;;
75584;SDS011;64162;53.508;10.476;2023-12-20T01:17:48;4.93;;;1.42;;
75584;SDS011;64162;53.508;10.476;2023-12-20T01:20:18;4.90;;;1.60;;
75584;SDS011;64162;53.508;10.476;2023-12-20T01:22:55;7.00;;;1.60;;
75584;SDS011;64162;53.508;10.476;2023-12-20T01:25:22;7.22;;;1.80;;
75584;SDS011;64162;53.508;10.476;2023-12-20T01:30:15;7.30;;;1.52;;
75584;SDS011;64162;53.508;10.476;2023-12-20T01:32:44;8.15;;;1.73;;
75584;SDS011;64162;53.508;10.476;2023-12-20T01:35:10;6.80;;;1.42;;
75584;SDS011;64162;53.508;10.476;2023-12-20T01:37:41;10.65;;;1.75;;
75584;SDS011;64162;53.508;10.476;2023-12-20T01:40:08;8.98;;;1.42;;
75584;SDS011;64162;53.508;10.476;2023-12-20T01:42:35;7.22;;;1.27;;
75584;SDS011;64162;53.508;10.476;2023-12-20T01:45:02;3.60;;;1.42;;
75584;SDS011;64162;53.508;10.476;2023-12-20T01:47:28;4.97;;;1.38;;
75584;SDS011;64162;53.508;10.476;2023-12-20T01:49:55;6.93;;;1.38;;
75584;SDS011;64162;53.508;10.476;2023-12-20T01:52:23;4.95;;;1.48;;
75584;SDS011;64162;53.508;10.476;2023-12-20T01:54:51;6.93;;;1.70;;
75584;SDS011;64162;53.508;10.476;2023-12-20T01:57:18;6.75;;;1.73;;
75584;SDS011;64162;53.508;10.476;2023-12-20T01:59:45;11.68;;;2.28;;
75584;SDS011;64162;53.508;10.476;2023-12-20T02:02:13;5.30;;;1.63;;
75584;SDS011;64162;53.508;10.476;2023-12-20T02:04:42;11.18;;;1.67;;
75584;SDS011;64162;53.508;10.476;2023-12-20T02:07:09;6.60;;;1.48;;
75584;SDS011;64162;53.508;10.476;2023-12-20T02:09:38;11.13;;;1.75;;
75584;SDS011;64162;53.508;10.476;2023-12-20T02:12:07;9.43;;;1.50;;
75584;SDS011;64162;53.508;10.476;2023-12-20T02:14:34;7.28;;;1.70;;
75584;SDS011;64162;53.508;10.476;2023-12-20T02:17:06;7.43;;;1.45;;
75584;SDS011;64162;53.508;10.476;2023-12-20T02:19:33;8.10;;;2.30;;
75584;SDS011;64162;53.508;10.476;2023-12-20T02:24:35;5.40;;;1.58;;
75584;SDS011;64162;53.508;10.476;2023-12-20T02:27:02;6.10;;;1.55;;
75584;SDS011;64162;53.508;10.476;2023-12-20T02:29:29;5.80;;;1.77;;
75584;SDS011;64162;53.508;10.476;2023-12-20T02:31:59;5.50;;;1.33;;
75584;SDS011;64162;53.508;10.476;2023-12-20T02:34:26;5.15;;;1.67;;
75584;SDS011;64162;53.508;10.476;2023-12-20T02:39:19;5.38;;;1.23;;
75584;SDS011;64162;53.508;10.476;2023-12-20T02:41:47;11.35;;;1.75;;
75584;SDS011;64162;53.508;10.476;2023-12-20T02:44:14;5.45;;;1.83;;
75584;SDS011;64162;53.508;10.476;2023-12-20T02:49:07;5.32;;;1.60;;
75584;SDS011;64162;53.508;10.476;2023-12-20T02:51:34;4.88;;;1.63;;
75584;SDS011;64162;53.508;10.476;2023-12-20T02:54:00;11.63;;;2.20;;
75584;SDS011;64162;53.508;10.476;2023-12-20T02:58:53;6.40;;;1.90;;
75584;SDS011;64162;53.508;10.476;2023-12-20T03:01:22;3.33;;;1.45;;
75584;SDS011;64162;53.508;10.476;2023-12-20T03:03:49;8.30;;;1.98;;
75584;SDS011;64162;53.508;10.476;2023-12-20T03:08:46;6.88;;;1.27;;
75584;SDS011;64162;53.508;10.476;2023-12-20T03:11:13;8.77;;;1.65;;
75584;SDS011;64162;53.508;10.476;2023-12-20T03:13:40;4.75;;;2.05;;
75584;SDS011;64162;53.508;10.476;2023-12-20T03:16:09;5.57;;;1.75;;
75584;SDS011;64162;53.508;10.476;2023-12-20T03:18:37;8.32;;;1.83;;
75584;SDS011;64162;53.508;10.476;2023-12-20T03:21:13;5.60;;;1.83;;
75584;SDS011;64162;53.508;10.476;2023-12-20T03:23:40;8.85;;;1.83;;
75584;SDS011;64162;53.508;10.476;2023-12-20T03:26:07;7.00;;;1.52;;
75584;SDS011;64162;53.508;10.476;2023-12-20T03:28:34;7.40;;;2.20;;
75584;SDS011;64162;53.508;10.476;2023-12-20T03:31:02;14.52;;;2.40;;
75584;SDS011;64162;53.508;10.476;2023-12-20T03:33:32;6.43;;;1.60;;
75584;SDS011;64162;53.508;10.476;2023-12-20T03:35:58;4.20;;;1.77;;
75584;SDS011;64162;53.508;10.476;2023-12-20T03:38:25;4.78;;;1.10;;
75584;SDS011;64162;53.508;10.476;2023-12-20T03:40:52;10.35;;;2.17;;
75584;SDS011;64162;53.508;10.476;2023-12-20T03:45:45;4.35;;;1.25;;
75584;SDS011;64162;53.508;10.476;2023-12-20T03:48:15;2.15;;;1.08;;
75584;SDS011;64162;53.508;10.476;2023-12-20T03:50:42;4.45;;;1.63;;
75584;SDS011;64162;53.508;10.476;2023-12-20T03:53:10;4.90;;;1.77;;
75584;SDS011;64162;53.508;10.476;2023-12-20T03:55:37;11.35;;;2.20;;
75584;SDS011;64162;53.508;10.476;2023-12-20T03:58:04;7.78;;;1.55;;
75584;SDS011;64162;53.508;10.476;2023-12-20T04:00:31;9.15;;;2.15;;
75584;SDS011;64162;53.508;10.476;2023-12-20T04:05:24;4.05;;;1.25;;
75584;SDS011;64162;53.508;10.476;2023-12-20T04:07:54;7.47;;;1.92;;
75584;SDS011;64162;53.508;10.476;2023-12-20T04:10:23;4.10;;;1.70;;
75584;SDS011;64162;53.508;10.476;2023-12-20T04:12:50;7.82;;;2.10;;
75584;SDS011;64162;53.508;10.476;2023-12-20T04:15:16;5.75;;;2.10;;
75584;SDS011;64162;53.508;10.476;2023-12-20T04:17:43;8.82;;;1.90;;
75584;SDS011;64162;53.508;10.476;2023-12-20T04:20:10;8.25;;;1.50;;
75584;SDS011;64162;53.508;10.476;2023-12-20T04:22:37;13.38;;;2.15;;
75584;SDS011;64162;53.508;10.476;2023-12-20T04:25:04;7.30;;;1.42;;
75584;SDS011;64162;53.508;10.476;2023-12-20T04:27:31;7.65;;;1.88;;
75584;SDS011;64162;53.508;10.476;2023-12-20T04:30:00;7.90;;;1.65;;
75584;SDS011;64162;53.508;10.476;2023-12-20T04:32:29;4.22;;;1.40;;
75584;SDS011;64162;53.508;10.476;2023-12-20T04:34:58;6.22;;;1.30;;
75584;SDS011;64162;53.508;10.476;2023-12-20T04:37:27;8.80;;;1.67;;
75584;SDS011;64162;53.508;10.476;2023-12-20T04:39:53;8.40;;;2.15;;
75584;SDS011;64162;53.508;10.476;2023-12-20T04:42:21;9.52;;;2.28;;
75584;SDS011;64162;53.508;10.476;2023-12-20T04:44:49;6.15;;;2.33;;
75584;SDS011;64162;53.508;10.476;2023-12-20T04:49:44;5.45;;;2.28;;
75584;SDS011;64162;53.508;10.476;2023-12-20T04:52:11;7.43;;;1.40;;
75584;SDS011;64162;53.508;10.476;2023-12-20T04:54:38;3.42;;;1.38;;
75584;SDS011;64162;53.508;10.476;2023-12-20T04:57:05;2.97;;;1.75;;
75584;SDS011;64162;53.508;10.476;2023-12-20T04:59:35;9.02;;;2.50;;
75584;SDS011;64162;53.508;10.476;2023-12-20T05:02:02;9.50;;;2.78;;
75584;SDS011;64162;53.508;10.476;2023-12-20T05:04:29;4.75;;;2.05;;
75584;SDS011;64162;53.508;10.476;2023-12-20T05:06:55;7.57;;;3.55;;
75584;SDS011;64162;53.508;10.476;2023-12-20T05:09:22;6.10;;;2.45;;
75584;SDS011;64162;53.508;10.476;2023-12-20T05:14:26;10.30;;;3.20;;
75584;SDS011;64162;53.508;10.476;2023-12-20T05:16:52;8.68;;;2.45;;
75584;SDS011;64162;53.508;10.476;2023-12-20T05:21:46;9.13;;;1.88;;
75584;SDS011;64162;53.508;10.476;2023-12-20T05:26:41;6.55;;;1.90;;
75584;SDS011;64162;53.508;10.476;2023-12-20T05:31:34;4.95;;;1.52;;
75584;SDS011;64162;53.508;10.476;2023-12-20T05:36:28;4.53;;;1.52;;
75584;SDS011;64162;53.508;10.476;2023-12-20T05:38:54;12.15;;;2.88;;
75584;SDS011;64162;53.508;10.476;2023-12-20T05:41:21;10.13;;;2.80;;
75584;SDS011;64162;53.508;10.476;2023-12-20T05:43:48;9.30;;;3.13;;
75584;SDS011;64162;53.508;10.476;2023-12-20T05:46:15;9.90;;;2.70;;
75584;SDS011;64162;53.508;10.476;2023-12-20T05:48:42;4.22;;;2.25;;
75584;SDS011;64162;53.508;10.476;2023-12-20T05:53:38;6.68;;;2.25;;
75584;SDS011;64162;53.508;10.476;2023-12-20T05:56:04;4.28;;;2.90;;
75584;SDS011;64162;53.508;10.476;2023-12-20T05:58:32;11.02;;;2.80;;
75584;SDS011;64162;53.508;10.476;2023-12-20T06:00:59;8.38;;;2.95;;
75584;SDS011;64162;53.508;10.476;2023-12-20T06:03:26;7.40;;;2.92;;
75584;SDS011;64162;53.508;10.476;2023-12-20T06:08:22;7.28;;;3.15;;
75584;SDS011;64162;53.508;10.476;2023-12-20T06:10:49;11.20;;;3.13;;
75584;SDS011;64162;53.508;10.476;2023-12-20T06:13:16;6.53;;;2.63;;
75584;SDS011;64162;53.508;10.476;2023-12-20T06:18:11;8.18;;;2.67;;
75584;SDS011;64162;53.508;10.476;2023-12-20T06:20:38;7.47;;;3.00;;
75584;SDS011;64162;53.508;10.476;2023-12-20T06:23:05;7.63;;;3.05;;
75584;SDS011;64162;53.508;10.476;2023-12-20T06:25:32;10.82;;;3.17;;
75584;SDS011;64162;53.508;10.476;2023-12-20T06:28:01;15.20;;;3.70;;
75584;SDS011;64162;53.508;10.476;2023-12-20T06:30:28;9.85;;;3.03;;
75584;SDS011;64162;53.508;10.476;2023-12-20T06:32:55;11.73;;;3.17;;
75584;SDS011;64162;53.508;10.476;2023-12-20T06:35:24;5.35;;;2.50;;
75584;SDS011;64162;53.508;10.476;2023-12-20T06:37:53;9.98;;;3.38;;
75584;SDS011;64162;53.508;10.476;2023-12-20T06:42:46;9.77;;;2.65;;
75584;SDS011;64162;53.508;10.476;2023-12-20T06:45:15;6.82;;;2.40;;
75584;SDS011;64162;53.508;10.476;2023-12-20T06:47:42;4.05;;;1.48;;
75584;SDS011;64162;53.508;10.476;2023-12-20T06:50:09;11.13;;;2.50;;
75584;SDS011;64162;53.508;10.476;2023-12-20T06:52:37;8.10;;;2.47;;
75584;SDS011;64162;53.508;10.476;2023-12-20T06:55:05;5.80;;;2.53;;
75584;SDS011;64162;53.508;10.476;2023-12-20T06:57:33;9.02;;;2.10;;
75584;SDS011;64162;53.508;10.476;2023-12-20T07:00:02;10.85;;;2.58;;
75584;SDS011;64162;53.508;10.476;2023-12-20T07:02:29;13.52;;;3.10;;
75584;SDS011;64162;53.508;10.476;2023-12-20T07:04:56;8.15;;;2.47;;
75584;SDS011;64162;53.508;10.476;2023-12-20T07:07:23;4.60;;;2.33;;
75584;SDS011;64162;53.508;10.476;2023-12-20T07:09:53;5.28;;;2.03;;
75584;SDS011;64162;53.508;10.476;2023-12-20T07:12:20;6.03;;;3.00;;
75584;SDS011;64162;53.508;10.476;2023-12-20T07:14:47;10.20;;;2.95;;
75584;SDS011;64162;53.508;10.476;2023-12-20T07:17:14;7.63;;;2.47;;
75584;SDS011;64162;53.508;10.476;2023-12-20T07:19:41;7.82;;;2.28;;
75584;SDS011;64162;53.508;10.476;2023-12-20T07:22:08;12.85;;;2.88;;
75584;SDS011;64162;53.508;10.476;2023-12-20T07:24:35;4.05;;;1.77;;
75584;SDS011;64162;53.508;10.476;2023-12-20T07:27:04;8.45;;;2.40;;
75584;SDS011;64162;53.508;10.476;2023-12-20T07:29:34;4.50;;;1.83;;
75584;SDS011;64162;53.508;10.476;2023-12-20T07:32:00;7.75;;;1.95;;
75584;SDS011;64162;53.508;10.476;2023-12-20T07:34:27;9.75;;;2.10;;
75584;SDS011;64162;53.508;10.476;2023-12-20T07:36:54;12.77;;;2.97;;
75584;SDS011;64162;53.508;10.476;2023-12-20T07:39:21;2.70;;;1.45;;
75584;SDS011;64162;53.508;10.476;2023-12-20T07:41:47;5.60;;;1.80;;
75584;SDS011;64162;53.508;10.476;2023-12-20T07:46:44;5.22;;;2.33;;
75584;SDS011;64162;53.508;10.476;2023-12-20T07:49:14;7.45;;;2.05;;
75584;SDS011;64162;53.508;10.476;2023-12-20T07:51:41;10.25;;;2.83;;
75584;SDS011;64162;53.508;10.476;2023-12-20T07:54:10;6.55;;;2.88;;
75584;SDS011;64162;53.508;10.476;2023-12-20T07:56:37;6.70;;;2.05;;
75584;SDS011;64162;53.508;10.476;2023-12-20T08:01:37;9.73;;;2.55;;
75584;SDS011;64162;53.508;10.476;2023-12-20T08:04:04;7.68;;;2.65;;
75584;SDS011;64162;53.508;10.476;2023-12-20T08:08:59;6.95;;;1.80;;
75584;SDS011;64162;53.508;10.476;2023-12-20T08:11:27;9.73;;;3.58;;
75584;SDS011;64162;53.508;10.476;2023-12-20T08:13:55;7.35;;;2.25;;
75584;SDS011;64162;53.508;10.476;2023-12-20T08:16:21;9.60;;;2.42;;
75584;SDS011;64162;53.508;10.476;2023-12-20T08:21:15;5.57;;;2.40;;
75584;SDS011;64162;53.508;10.476;2023-12-20T08:23:42;5.13;;;2.05;;
75584;SDS011;64162;53.508;10.476;2023-12-20T08:26:08;11.00;;;2.80;;
75584;SDS011;64162;53.508;10.476;2023-12-20T08:31:03;10.50;;;3.00;;
75584;SDS011;64162;53.508;10.476;2023-12-20T08:33:37;10.30;;;2.72;;
75584;SDS011;64162;53.508;10.476;2023-12-20T08:36:03;9.43;;;2.90;;
75584;SDS011;64162;53.508;10.476;2023-12-20T08:38:31;5.30;;;2.20;;
75584;SDS011;64162;53.508;10.476;2023-12-20T08:40:58;13.60;;;3.20;;
75584;SDS011;64162;53.508;10.476;2023-12-20T08:43:25;12.50;;;2.95;;
75584;SDS011;64162;53.508;10.476;2023-12-20T08:48:18;9.85;;;2.55;;
75584;SDS011;64162;53.508;10.476;2023-12-20T08:53:12;10.20;;;2.70;;
75584;SDS011;64162;53.508;10.476;2023-12-20T08:58:06;4.15;;;1.65;;
75584;SDS011;64162;53.508;10.476;2023-12-20T09:00:34;9.65;;;1.90;;
75584;SDS011;64162;53.508;10.476;2023-12-20T09:03:04;5.53;;;1.58;;
75584;SDS011;64162;53.508;10.476;2023-12-20T09:05:31;12.45;;;3.00;;
75584;SDS011;64162;53.508;10.476;2023-12-20T09:07:57;3.90;;;1.50;;
75584;SDS011;64162;53.508;10.476;2023-12-20T09:10:26;9.70;;;3.22;;
75584;SDS011;64162;53.508;10.476;2023-12-20T09:15:25;4.72;;;2.05;;
75584;SDS011;64162;53.508;10.476;2023-12-20T09:17:53;8.88;;;2.35;;
75584;SDS011;64162;53.508;10.476;2023-12-20T09:20:20;10.63;;;2.72;;
75584;SDS011;64162;53.508;10.476;2023-12-20T09:25:13;8.02;;;2.58;;
75584;SDS011;64162;53.508;10.476;2023-12-20T09:27:41;10.35;;;2.50;;
75584;SDS011;64162;53.508;10.476;2023-12-20T09:30:08;4.72;;;1.85;;
75584;SDS011;64162;53.508;10.476;2023-12-20T09:32:35;8.15;;;1.90;;
75584;SDS011;64162;53.508;10.476;2023-12-20T09:37:29;5.78;;;1.35;;
75584;SDS011;64162;53.508;10.476;2023-12-20T09:39:56;8.48;;;1.85;;
75584;SDS011;64162;53.508;10.476;2023-12-20T09:42:35;4.97;;;1.58;;
75584;SDS011;64162;53.508;10.476;2023-12-20T09:45:23;5.05;;;1.58;;
75584;SDS011;64162;53.508;10.476;2023-12-20T09:47:55;0.73;;;0.68;;
75584;SDS011;64162;53.508;10.476;2023-12-20T09:50:24;1.77;;;0.73;;
75584;SDS011;64162;53.508;10.476;2023-12-20T09:52:52;6.00;;;1.48;;
75584;SDS011;64162;53.508;10.476;2023-12-20T09:55:22;1.55;;;0.65;;
75584;SDS011;64162;53.508;10.476;2023-12-20T09:57:53;2.08;;;0.80;;
75584;SDS011;64162;53.508;10.476;2023-12-20T10:00:21;0.88;;;0.80;;
75584;SDS011;64162;53.508;10.476;2023-12-20T10:02:58;3.00;;;0.75;;
75584;SDS011;64162;53.508;10.476;2023-12-20T10:05:29;4.20;;;0.98;;
75584;SDS011;64162;53.508;10.476;2023-12-20T10:07:59;3.42;;;1.35;;
75584;SDS011;64162;53.508;10.476;2023-12-20T10:10:27;0.80;;;0.63;;
75584;SDS011;64162;53.508;10.476;2023-12-20T10:15:32;3.92;;;1.17;;
75584;SDS011;64162;53.508;10.476;2023-12-20T10:18:03;5.30;;;1.13;;
75584;SDS011;64162;53.508;10.476;2023-12-20T10:20:32;0.45;;;0.45;;
75584;SDS011;64162;53.508;10.476;2023-12-20T10:23:00;2.25;;;1.30;;
75584;SDS011;64162;53.508;10.476;2023-12-20T10:25:27;2.83;;;0.60;;
75584;SDS011;64162;53.508;10.476;2023-12-20T10:30:40;1.20;;;0.80;;
75584;SDS011;64162;53.508;10.476;2023-12-20T10:33:08;3.22;;;0.95;;
75584;SDS011;64162;53.508;10.476;2023-12-20T10:35:38;1.80;;;1.35;;
75584;SDS011;64162;53.508;10.476;2023-12-20T10:38:06;3.10;;;2.03;;
75584;SDS011;64162;53.508;10.476;2023-12-20T10:40:36;3.15;;;0.90;;
75584;SDS011;64162;53.508;10.476;2023-12-20T10:43:05;1.50;;;0.93;;
75584;SDS011;64162;53.508;10.476;2023-12-20T10:45:32;0.82;;;0.68;;
75584;SDS011;64162;53.508;10.476;2023-12-20T10:47:59;2.50;;;1.00;;
75584;SDS011;64162;53.508;10.476;2023-12-20T10:50:28;1.38;;;0.57;;
75584;SDS011;64162;53.508;10.476;2023-12-20T10:52:57;3.22;;;1.15;;
75584;SDS011;64162;53.508;10.476;2023-12-20T10:55:24;3.30;;;1.00;;
75584;SDS011;64162;53.508;10.476;2023-12-20T10:57:52;4.57;;;1.17;;
75584;SDS011;64162;53.508;10.476;2023-12-20T11:00:28;1.50;;;0.57;;
75584;SDS011;64162;53.508;10.476;2023-12-20T11:03:00;1.85;;;1.02;;
75584;SDS011;64162;53.508;10.476;2023-12-20T11:05:33;4.80;;;1.70;;
75584;SDS011;64162;53.508;10.476;2023-12-20T11:08:12;2.80;;;1.20;;
75584;SDS011;64162;53.508;10.476;2023-12-20T11:14:00;4.93;;;1.50;;
75584;SDS011;64162;53.508;10.476;2023-12-20T11:16:33;3.55;;;1.27;;
75584;SDS011;64162;53.508;10.476;2023-12-20T11:19:04;2.83;;;1.60;;
75584;SDS011;64162;53.508;10.476;2023-12-20T11:21:39;1.95;;;1.00;;
75584;SDS011;64162;53.508;10.476;2023-12-20T11:24:06;4.40;;;1.77;;
75584;SDS011;64162;53.508;10.476;2023-12-20T11:26:41;3.35;;;1.13;;
75584;SDS011;64162;53.508;10.476;2023-12-20T11:32:03;5.15;;;0.88;;
75584;SDS011;64162;53.508;10.476;2023-12-20T11:34:54;2.20;;;1.02;;
75584;SDS011;64162;53.508;10.476;2023-12-20T11:37:22;2.85;;;1.55;;
75584;SDS011;64162;53.508;10.476;2023-12-20T11:40:02;6.20;;;1.23;;
75584;SDS011;64162;53.508;10.476;2023-12-20T11:42:33;1.30;;;0.75;;
75584;SDS011;64162;53.508;10.476;2023-12-20T11:45:04;1.23;;;0.80;;
75584;SDS011;64162;53.508;10.476;2023-12-20T11:47:31;2.13;;;0.75;;
75584;SDS011;64162;53.508;10.476;2023-12-20T11:49:59;5.28;;;1.23;;
75584;SDS011;64162;53.508;10.476;2023-12-20T11:52:30;4.43;;;1.30;;
75584;SDS011;64162;53.508;10.476;2023-12-20T11:54:57;2.60;;;1.20;;
75584;SDS011;64162;53.508;10.476;2023-12-20T11:57:25;3.80;;;0.93;;
75584;SDS011;64162;53.508;10.476;2023-12-20T11:59:53;3.42;;;0.77;;
75584;SDS011;64162;53.508;10.476;2023-12-20T12:02:19;2.03;;;0.82;;
75584;SDS011;64162;53.508;10.476;2023-12-20T12:07:15;3.10;;;0.70;;
75584;SDS011;64162;53.508;10.476;2023-12-20T12:09:42;4.45;;;1.15;;
75584;SDS011;64162;53.508;10.476;2023-12-20T12:12:10;5.40;;;0.75;;
75584;SDS011;64162;53.508;10.476;2023-12-20T12:14:39;3.63;;;1.30;;
75584;SDS011;64162;53.508;10.476;2023-12-20T12:17:11;1.70;;;1.17;;
75584;SDS011;64162;53.508;10.476;2023-12-20T12:19:41;4.13;;;1.33;;
75584;SDS011;64162;53.508;10.476;2023-12-20T12:22:12;1.92;;;1.40;;
75584;SDS011;64162;53.508;10.476;2023-12-20T12:24:45;2.08;;;1.15;;
75584;SDS011;64162;53.508;10.476;2023-12-20T12:27:13;5.32;;;1.67;;
75584;SDS011;64162;53.508;10.476;2023-12-20T12:29:40;6.55;;;1.92;;
75584;SDS011;64162;53.508;10.476;2023-12-20T12:32:07;2.58;;;0.77;;
75584;SDS011;64162;53.508;10.476;2023-12-20T12:34:37;8.00;;;1.80;;
75584;SDS011;64162;53.508;10.476;2023-12-20T12:39:34;5.15;;;1.10;;
75584;SDS011;64162;53.508;10.476;2023-12-20T12:42:04;6.43;;;1.92;;
75584;SDS011;64162;53.508;10.476;2023-12-20T12:44:30;4.47;;;1.52;;
75584;SDS011;64162;53.508;10.476;2023-12-20T12:46:57;4.80;;;1.70;;
75584;SDS011;64162;53.508;10.476;2023-12-20T12:51:51;10.45;;;1.80;;
75584;SDS011;64162;53.508;10.476;2023-12-20T12:54:17;8.25;;;1.63;;
75584;SDS011;64162;53.508;10.476;2023-12-20T12:56:48;10.73;;;2.28;;
75584;SDS011;64162;53.508;10.476;2023-12-20T12:59:16;9.35;;;2.45;;
75584;SDS011;64162;53.508;10.476;2023-12-20T13:01:43;12.60;;;3.80;;
75584;SDS011;64162;53.508;10.476;2023-12-20T13:04:12;10.60;;;4.40;;
75584;SDS011;64162;53.508;10.476;2023-12-20T13:06:39;5.22;;;2.00;;
75584;SDS011;64162;53.508;10.476;2023-12-20T13:09:08;4.82;;;1.65;;
75584;SDS011;64162;53.508;10.476;2023-12-20T13:11:36;6.65;;;1.77;;
75584;SDS011;64162;53.508;10.476;2023-12-20T13:16:32;7.93;;;1.95;;
75584;SDS011;64162;53.508;10.476;2023-12-20T13:19:00;9.05;;;1.38;;
75584;SDS011;64162;53.508;10.476;2023-12-20T13:21:28;7.68;;;1.83;;
75584;SDS011;64162;53.508;10.476;2023-12-20T13:23:57;12.02;;;2.30;;
75584;SDS011;64162;53.508;10.476;2023-12-20T13:28:50;6.90;;;1.60;;
75584;SDS011;64162;53.508;10.476;2023-12-20T13:31:19;6.38;;;1.67;;
75584;SDS011;64162;53.508;10.476;2023-12-20T13:33:46;4.50;;;1.50;;
75584;SDS011;64162;53.508;10.476;2023-12-20T13:38:40;5.18;;;2.10;;
75584;SDS011;64162;53.508;10.476;2023-12-20T13:41:06;7.13;;;1.63;;
75584;SDS011;64162;53.508;10.476;2023-12-20T13:46:03;7.70;;;1.40;;
75584;SDS011;64162;53.508;10.476;2023-12-20T13:48:29;2.83;;;1.17;;
75584;SDS011;64162;53.508;10.476;2023-12-20T13:50:56;17.50;;;2.80;;
75584;SDS011;64162;53.508;10.476;2023-12-20T13:53:32;3.25;;;1.33;;
75584;SDS011;64162;53.508;10.476;2023-12-20T13:55:58;9.02;;;2.20;;
75584;SDS011;64162;53.508;10.476;2023-12-20T13:58:28;2.78;;;1.27;;
75584;SDS011;64162;53.508;10.476;2023-12-20T14:03:21;10.77;;;2.03;;
75584;SDS011;64162;53.508;10.476;2023-12-20T14:08:18;7.75;;;1.55;;
75584;SDS011;64162;53.508;10.476;2023-12-20T14:10:44;7.80;;;1.90;;
75584;SDS011;64162;53.508;10.476;2023-12-20T14:15:37;7.57;;;1.98;;
75584;SDS011;64162;53.508;10.476;2023-12-20T14:18:05;6.85;;;2.20;;
75584;SDS011;64162;53.508;10.476;2023-12-20T14:20:34;6.15;;;1.90;;
75584;SDS011;64162;53.508;10.476;2023-12-20T14:23:04;16.33;;;2.72;;
75584;SDS011;64162;53.508;10.476;2023-12-20T14:25:32;5.18;;;1.80;;
75584;SDS011;64162;53.508;10.476;2023-12-20T14:28:01;3.15;;;1.42;;
75584;SDS011;64162;53.508;10.476;2023-12-20T14:30:28;6.25;;;2.05;;
75584;SDS011;64162;53.508;10.476;2023-12-20T14:35:21;10.25;;;2.10;;
75584;SDS011;64162;53.508;10.476;2023-12-20T14:40:14;11.13;;;2.30;;
75584;SDS011;64162;53.508;10.476;2023-12-20T14:42:42;8.13;;;2.47;;
75584;SDS011;64162;53.508;10.476;2023-12-20T14:45:09;13.15;;;2.72;;
75584;SDS011;64162;53.508;10.476;2023-12-20T14:47:36;10.25;;;2.33;;
75584;SDS011;64162;53.508;10.476;2023-12-20T14:50:03;9.73;;;2.25;;
75584;SDS011;64162;53.508;10.476;2023-12-20T14:52:32;16.55;;;2.97;;
75584;SDS011;64162;53.508;10.476;2023-12-20T14:55:00;9.77;;;2.72;;
75584;SDS011;64162;53.508;10.476;2023-12-20T14:57:30;16.73;;;3.45;;
75584;SDS011;64162;53.508;10.476;2023-12-20T14:59:56;13.10;;;2.53;;
75584;SDS011;64162;53.508;10.476;2023-12-20T15:04:50;14.18;;;3.08;;
75584;SDS011;64162;53.508;10.476;2023-12-20T15:07:17;9.25;;;2.75;;
75584;SDS011;64162;53.508;10.476;2023-12-20T15:09:45;10.32;;;2.50;;
75584;SDS011;64162;53.508;10.476;2023-12-20T15:12:14;10.95;;;2.47;;
75584;SDS011;64162;53.508;10.476;2023-12-20T15:14:41;2.15;;;1.02;;
75584;SDS011;64162;53.508;10.476;2023-12-20T15:17:07;9.45;;;2.80;;
75584;SDS011;64162;53.508;10.476;2023-12-20T15:22:00;5.85;;;2.08;;
75584;SDS011;64162;53.508;10.476;2023-12-20T15:24:27;11.10;;;2.22;;
75584;SDS011;64162;53.508;10.476;2023-12-20T15:26:54;10.18;;;2.47;;
75584;SDS011;64162;53.508;10.476;2023-12-20T15:29:22;9.25;;;2.40;;
75584;SDS011;64162;53.508;10.476;2023-12-20T15:31:49;10.23;;;1.92;;
75584;SDS011;64162;53.508;10.476;2023-12-20T15:34:15;14.25;;;2.78;;
75584;SDS011;64162;53.508;10.476;2023-12-20T15:36:42;11.70;;;2.47;;
75584;SDS011;64162;53.508;10.476;2023-12-20T15:39:10;7.68;;;2.63;;
75584;SDS011;64162;53.508;10.476;2023-12-20T15:41:40;10.40;;;2.80;;
75584;SDS011;64162;53.508;10.476;2023-12-20T15:44:08;8.32;;;2.38;;
75584;SDS011;64162;53.508;10.476;2023-12-20T15:46:34;11.70;;;2.72;;
75584;SDS011;64162;53.508;10.476;2023-12-20T15:51:28;15.70;;;2.95;;
75584;SDS011;64162;53.508;10.476;2023-12-20T15:56:23;4.35;;;1.65;;
75584;SDS011;64162;53.508;10.476;2023-12-20T15:58:50;10.73;;;2.28;;
75584;SDS011;64162;53.508;10.476;2023-12-20T16:01:23;8.73;;;2.13;;
75584;SDS011;64162;53.508;10.476;2023-12-20T16:03:50;13.30;;;2.55;;
75584;SDS011;64162;53.508;10.476;2023-12-20T16:06:21;13.52;;;2.80;;
75584;SDS011;64162;53.508;10.476;2023-12-20T16:11:15;7.18;;;1.88;;
75584;SDS011;64162;53.508;10.476;2023-12-20T16:13:47;9.13;;;2.42;;
75584;SDS011;64162;53.508;10.476;2023-12-20T16:16:15;6.95;;;2.85;;
75584;SDS011;64162;53.508;10.476;2023-12-20T16:18:42;11.65;;;2.75;;
75584;SDS011;64162;53.508;10.476;2023-12-20T16:21:09;10.15;;;3.03;;
75584;SDS011;64162;53.508;10.476;2023-12-20T16:23:36;11.65;;;2.75;;
75584;SDS011;64162;53.508;10.476;2023-12-20T16:28:29;11.07;;;2.85;;
75584;SDS011;64162;53.508;10.476;2023-12-20T16:33:22;5.82;;;1.83;;
75584;SDS011;64162;53.508;10.476;2023-12-20T16:35:49;13.23;;;2.50;;
75584;SDS011;64162;53.508;10.476;2023-12-20T16:38:16;16.30;;;3.35;;
75584;SDS011;64162;53.508;10.476;2023-12-20T16:40:42;11.82;;;2.88;;
75584;SDS011;64162;53.508;10.476;2023-12-20T16:43:12;8.10;;;2.38;;
75584;SDS011;64162;53.508;10.476;2023-12-20T16:45:39;13.32;;;2.88;;
75584;SDS011;64162;53.508;10.476;2023-12-20T16:50:35;10.55;;;2.58;;